sensor_id;sensor_type;location;lat;lon;timestamp;temperature;humidity
18450;DHT22;9354;50.194;7.690;2022-08-19T00:00:22;20.70;99.90
18450;DHT22;9354;50.194;7.690;2022-08-19T00:02:50;20.80;99.90
18450;DHT22;9354;50.194;7.690;2022-08-19T00:05:17;20.70;99.90
18450;DHT22;9354;50.194;7.690;2022-08-19T00:07:45;20.70;99.90
18450;DHT22;9354;50.194;7.690;2022-08-19T00:10:14;20.70;99.90
18450;DHT22;9354;50.194;7.690;2022-08-19T00:12:43;20.70;99.90
18450;DHT22;9354;50.194;7.690;2022-08-19T00:15:14;20.70;99.90
18450;DHT22;9354;50.194;7.690;2022-08-19T00:17:44;20.70;99.90
18450;DHT22;9354;50.194;7.690;2022-08-19T00:20:14;20.70;99.90
18450;DHT22;9354;50.194;7.690;2022-08-19T00:22:42;20.70;99.90
18450;DHT22;9354;50.194;7.690;2022-08-19T00:25:10;20.60;99.90
18450;DHT22;9354;50.194;7.690;2022-08-19T00:27:38;20.60;99.90
18450;DHT22;9354;50.194;7.690;2022-08-19T00:30:07;20.60;99.90
18450;DHT22;9354;50.194;7.690;2022-08-19T00:32:36;20.50;99.90
18450;DHT22;9354;50.194;7.690;2022-08-19T00:35:06;20.50;99.90
18450;DHT22;9354;50.194;7.690;2022-08-19T00:37:33;20.50;99.90
18450;DHT22;9354;50.194;7.690;2022-08-19T00:40:02;20.50;99.90
18450;DHT22;9354;50.194;7.690;2022-08-19T00:42:30;20.50;99.90
18450;DHT22;9354;50.194;7.690;2022-08-19T00:44:57;20.40;99.90
18450;DHT22;9354;50.194;7.690;2022-08-19T00:47:25;20.40;99.90
18450;DHT22;9354;50.194;7.690;2022-08-19T00:49:55;20.40;99.90
18450;DHT22;9354;50.194;7.690;2022-08-19T00:52:28;20.40;99.90
18450;DHT22;9354;50.194;7.690;2022-08-19T00:54:57;20.40;99.90
18450;DHT22;9354;50.194;7.690;2022-08-19T00:57:28;20.50;99.90
18450;DHT22;9354;50.194;7.690;2022-08-19T00:59:57;20.50;99.90
18450;DHT22;9354;50.194;7.690;2022-08-19T01:02:27;20.50;99.90
18450;DHT22;9354;50.194;7.690;2022-08-19T01:04:54;20.50;99.90
18450;DHT22;9354;50.194;7.690;2022-08-19T01:07:23;20.50;99.90
18450;DHT22;9354;50.194;7.690;2022-08-19T01:09:51;20.50;99.90
18450;DHT22;9354;50.194;7.690;2022-08-19T01:12:19;20.50;99.90
18450;DHT22;9354;50.194;7.690;2022-08-19T01:14:47;20.50;99.90
18450;DHT22;9354;50.194;7.690;2022-08-19T01:17:16;20.50;99.90
18450;DHT22;9354;50.194;7.690;2022-08-19T01:19:45;20.50;99.90
18450;DHT22;9354;50.194;7.690;2022-08-19T01:22:18;20.60;99.90
18450;DHT22;9354;50.194;7.690;2022-08-19T01:24:48;20.60;99.90
18450;DHT22;9354;50.194;7.690;2022-08-19T01:27:16;20.60;99.90
18450;DHT22;9354;50.194;7.690;2022-08-19T01:29:44;20.50;99.90
18450;DHT22;9354;50.194;7.690;2022-08-19T01:32:14;20.50;99.90
18450;DHT22;9354;50.194;7.690;2022-08-19T01:34:42;20.50;99.90
18450;DHT22;9354;50.194;7.690;2022-08-19T01:37:14;20.50;99.90
18450;DHT22;9354;50.194;7.690;2022-08-19T01:39:42;20.50;99.90
18450;DHT22;9354;50.194;7.690;2022-08-19T01:42:11;20.40;99.90
18450;DHT22;9354;50.194;7.690;2022-08-19T01:44:39;20.30;99.90
18450;DHT22;9354;50.194;7.690;2022-08-19T01:47:07;20.30;99.90
18450;DHT22;9354;50.194;7.690;2022-08-19T01:49:36;20.20;99.90
18450;DHT22;9354;50.194;7.690;2022-08-19T01:52:04;20.20;99.90
18450;DHT22;9354;50.194;7.690;2022-08-19T01:54:32;20.20;99.90
18450;DHT22;9354;50.194;7.690;2022-08-19T01:57:04;20.10;99.90
18450;DHT22;9354;50.194;7.690;2022-08-19T01:59:33;20.10;99.90
18450;DHT22;9354;50.194;7.690;2022-08-19T02:02:03;20.00;99.90
18450;DHT22;9354;50.194;7.690;2022-08-19T02:04:33;20.00;99.90
18450;DHT22;9354;50.194;7.690;2022-08-19T02:07:01;20.00;99.90
18450;DHT22;9354;50.194;7.690;2022-08-19T02:09:28;20.00;99.90
18450;DHT22;9354;50.194;7.690;2022-08-19T02:11:57;20.00;99.90
18450;DHT22;9354;50.194;7.690;2022-08-19T02:14:24;20.00;99.90
18450;DHT22;9354;50.194;7.690;2022-08-19T02:16:53;20.00;99.90
18450;DHT22;9354;50.194;7.690;2022-08-19T02:19:20;20.00;99.90
18450;DHT22;9354;50.194;7.690;2022-08-19T02:21:48;20.00;99.90
18450;DHT22;9354;50.194;7.690;2022-08-19T02:24:15;20.00;99.90
18450;DHT22;9354;50.194;7.690;2022-08-19T02:26:43;20.00;99.90
18450;DHT22;9354;50.194;7.690;2022-08-19T02:29:10;20.00;99.90
18450;DHT22;9354;50.194;7.690;2022-08-19T02:31:37;19.90;99.90
18450;DHT22;9354;50.194;7.690;2022-08-19T02:34:06;19.90;99.90
18450;DHT22;9354;50.194;7.690;2022-08-19T02:36:34;19.90;99.90
18450;DHT22;9354;50.194;7.690;2022-08-19T02:39:01;19.80;99.90
18450;DHT22;9354;50.194;7.690;2022-08-19T02:41:30;19.80;99.90
18450;DHT22;9354;50.194;7.690;2022-08-19T02:44:00;19.80;99.90
18450;DHT22;9354;50.194;7.690;2022-08-19T02:46:30;19.70;99.90
18450;DHT22;9354;50.194;7.690;2022-08-19T02:48:59;19.70;99.90
18450;DHT22;9354;50.194;7.690;2022-08-19T02:51:31;19.70;99.90
18450;DHT22;9354;50.194;7.690;2022-08-19T02:53:59;19.70;99.90
18450;DHT22;9354;50.194;7.690;2022-08-19T02:56:27;19.70;99.90
18450;DHT22;9354;50.194;7.690;2022-08-19T02:58:55;19.70;99.90
18450;DHT22;9354;50.194;7.690;2022-08-19T03:01:24;19.70;99.90
18450;DHT22;9354;50.194;7.690;2022-08-19T03:03:53;19.70;99.90
18450;DHT22;9354;50.194;7.690;2022-08-19T03:06:21;19.70;99.90
18450;DHT22;9354;50.194;7.690;2022-08-19T03:08:50;19.70;99.90
18450;DHT22;9354;50.194;7.690;2022-08-19T03:11:20;19.70;99.90
18450;DHT22;9354;50.194;7.690;2022-08-19T03:13:48;19.60;99.90
18450;DHT22;9354;50.194;7.690;2022-08-19T03:16:17;19.60;99.90
18450;DHT22;9354;50.194;7.690;2022-08-19T03:18:45;19.50;99.90
18450;DHT22;9354;50.194;7.690;2022-08-19T03:21:15;19.50;99.90
18450;DHT22;9354;50.194;7.690;2022-08-19T03:23:42;19.50;99.90
18450;DHT22;9354;50.194;7.690;2022-08-19T03:26:11;19.50;99.90
18450;DHT22;9354;50.194;7.690;2022-08-19T03:28:40;19.50;99.90
18450;DHT22;9354;50.194;7.690;2022-08-19T03:31:12;19.50;99.90
18450;DHT22;9354;50.194;7.690;2022-08-19T03:33:40;19.50;99.90
18450;DHT22;9354;50.194;7.690;2022-08-19T03:36:10;19.50;99.90
18450;DHT22;9354;50.194;7.690;2022-08-19T03:38:41;19.50;99.90
18450;DHT22;9354;50.194;7.690;2022-08-19T03:41:13;19.50;99.90
18450;DHT22;9354;50.194;7.690;2022-08-19T03:43:42;19.50;99.90
18450;DHT22;9354;50.194;7.690;2022-08-19T03:46:13;19.50;99.90
18450;DHT22;9354;50.194;7.690;2022-08-19T03:48:42;19.50;99.90
18450;DHT22;9354;50.194;7.690;2022-08-19T03:51:16;19.40;99.90
18450;DHT22;9354;50.194;7.690;2022-08-19T03:53:45;19.40;99.90
18450;DHT22;9354;50.194;7.690;2022-08-19T03:56:15;19.40;99.90
18450;DHT22;9354;50.194;7.690;2022-08-19T03:58:43;19.30;99.90
18450;DHT22;9354;50.194;7.690;2022-08-19T04:01:14;19.30;99.90
18450;DHT22;9354;50.194;7.690;2022-08-19T04:03:42;19.30;99.90
18450;DHT22;9354;50.194;7.690;2022-08-19T04:06:10;19.30;99.90
18450;DHT22;9354;50.194;7.690;2022-08-19T04:08:39;19.20;99.90
18450;DHT22;9354;50.194;7.690;2022-08-19T04:11:07;19.20;99.90
18450;DHT22;9354;50.194;7.690;2022-08-19T04:13:36;19.20;99.90
18450;DHT22;9354;50.194;7.690;2022-08-19T04:16:05;19.10;99.90
18450;DHT22;9354;50.194;7.690;2022-08-19T04:18:33;19.10;99.90
18450;DHT22;9354;50.194;7.690;2022-08-19T04:21:00;19.10;99.90
18450;DHT22;9354;50.194;7.690;2022-08-19T04:23:28;19.10;99.90
18450;DHT22;9354;50.194;7.690;2022-08-19T04:25:56;19.10;99.90
18450;DHT22;9354;50.194;7.690;2022-08-19T04:28:24;19.10;99.90
18450;DHT22;9354;50.194;7.690;2022-08-19T04:30:54;19.10;99.90
18450;DHT22;9354;50.194;7.690;2022-08-19T04:33:24;19.20;99.90
18450;DHT22;9354;50.194;7.690;2022-08-19T04:35:53;19.20;99.90
18450;DHT22;9354;50.194;7.690;2022-08-19T04:38:21;19.20;99.90
18450;DHT22;9354;50.194;7.690;2022-08-19T04:40:51;19.20;99.90
18450;DHT22;9354;50.194;7.690;2022-08-19T04:43:37;19.20;99.90
18450;DHT22;9354;50.194;7.690;2022-08-19T04:46:08;19.20;99.90
18450;DHT22;9354;50.194;7.690;2022-08-19T04:48:36;19.20;99.90
18450;DHT22;9354;50.194;7.690;2022-08-19T04:51:08;19.20;99.90
18450;DHT22;9354;50.194;7.690;2022-08-19T04:53:37;19.20;99.90
18450;DHT22;9354;50.194;7.690;2022-08-19T04:56:06;19.20;99.90
18450;DHT22;9354;50.194;7.690;2022-08-19T04:58:34;19.20;99.90
18450;DHT22;9354;50.194;7.690;2022-08-19T05:01:02;19.20;99.90
18450;DHT22;9354;50.194;7.690;2022-08-19T05:03:31;19.20;99.90
18450;DHT22;9354;50.194;7.690;2022-08-19T05:06:04;19.20;99.90
18450;DHT22;9354;50.194;7.690;2022-08-19T05:08:34;19.20;99.90
18450;DHT22;9354;50.194;7.690;2022-08-19T05:11:08;19.20;99.90
18450;DHT22;9354;50.194;7.690;2022-08-19T05:13:37;19.20;99.90
18450;DHT22;9354;50.194;7.690;2022-08-19T05:16:05;19.10;99.90
18450;DHT22;9354;50.194;7.690;2022-08-19T05:18:33;19.10;99.90
18450;DHT22;9354;50.194;7.690;2022-08-19T05:21:19;19.10;99.90
18450;DHT22;9354;50.194;7.690;2022-08-19T05:24:05;19.10;99.90
18450;DHT22;9354;50.194;7.690;2022-08-19T05:26:34;19.10;99.90
18450;DHT22;9354;50.194;7.690;2022-08-19T05:29:02;19.10;99.90
18450;DHT22;9354;50.194;7.690;2022-08-19T05:31:30;19.10;99.90
18450;DHT22;9354;50.194;7.690;2022-08-19T05:34:00;19.10;99.90
18450;DHT22;9354;50.194;7.690;2022-08-19T05:36:32;19.10;99.90
18450;DHT22;9354;50.194;7.690;2022-08-19T05:39:00;19.10;99.90
18450;DHT22;9354;50.194;7.690;2022-08-19T05:41:28;19.10;99.90
18450;DHT22;9354;50.194;7.690;2022-08-19T05:43:56;19.10;99.90
18450;DHT22;9354;50.194;7.690;2022-08-19T05:46:24;19.20;99.90
18450;DHT22;9354;50.194;7.690;2022-08-19T05:48:52;19.20;99.90
18450;DHT22;9354;50.194;7.690;2022-08-19T05:51:24;19.20;99.90
18450;DHT22;9354;50.194;7.690;2022-08-19T05:53:51;19.20;99.90
18450;DHT22;9354;50.194;7.690;2022-08-19T05:56:19;19.30;99.90
18450;DHT22;9354;50.194;7.690;2022-08-19T05:58:46;19.30;99.90
18450;DHT22;9354;50.194;7.690;2022-08-19T06:01:16;19.30;99.90
18450;DHT22;9354;50.194;7.690;2022-08-19T06:03:44;19.30;99.90
18450;DHT22;9354;50.194;7.690;2022-08-19T06:06:13;19.30;99.90
18450;DHT22;9354;50.194;7.690;2022-08-19T06:08:43;19.40;99.90
18450;DHT22;9354;50.194;7.690;2022-08-19T06:11:18;19.40;99.90
18450;DHT22;9354;50.194;7.690;2022-08-19T06:13:48;19.30;99.90
18450;DHT22;9354;50.194;7.690;2022-08-19T06:16:17;19.40;99.90
18450;DHT22;9354;50.194;7.690;2022-08-19T06:18:49;19.40;99.90
18450;DHT22;9354;50.194;7.690;2022-08-19T06:21:19;19.40;99.90
18450;DHT22;9354;50.194;7.690;2022-08-19T06:23:49;19.40;99.90
18450;DHT22;9354;50.194;7.690;2022-08-19T06:26:18;19.40;99.90
18450;DHT22;9354;50.194;7.690;2022-08-19T06:28:47;19.40;99.90
18450;DHT22;9354;50.194;7.690;2022-08-19T06:31:16;19.50;99.90
18450;DHT22;9354;50.194;7.690;2022-08-19T06:33:45;19.50;99.90
18450;DHT22;9354;50.194;7.690;2022-08-19T06:36:20;19.50;99.90
18450;DHT22;9354;50.194;7.690;2022-08-19T06:38:49;19.60;99.90
18450;DHT22;9354;50.194;7.690;2022-08-19T06:41:16;19.60;99.90
18450;DHT22;9354;50.194;7.690;2022-08-19T06:43:44;19.60;99.90
18450;DHT22;9354;50.194;7.690;2022-08-19T06:46:13;19.60;99.90
18450;DHT22;9354;50.194;7.690;2022-08-19T06:48:41;19.70;99.90
18450;DHT22;9354;50.194;7.690;2022-08-19T06:51:08;19.70;99.90
18450;DHT22;9354;50.194;7.690;2022-08-19T06:53:36;19.80;99.90
18450;DHT22;9354;50.194;7.690;2022-08-19T06:56:06;19.90;99.90
18450;DHT22;9354;50.194;7.690;2022-08-19T06:58:34;19.90;99.90
18450;DHT22;9354;50.194;7.690;2022-08-19T07:01:02;19.90;99.90
18450;DHT22;9354;50.194;7.690;2022-08-19T07:03:32;19.90;99.90
18450;DHT22;9354;50.194;7.690;2022-08-19T07:06:03;20.00;99.90
18450;DHT22;9354;50.194;7.690;2022-08-19T07:08:31;20.00;99.90
18450;DHT22;9354;50.194;7.690;2022-08-19T07:10:59;20.00;99.90
18450;DHT22;9354;50.194;7.690;2022-08-19T07:13:28;20.10;99.90
18450;DHT22;9354;50.194;7.690;2022-08-19T07:15:57;20.10;99.90
18450;DHT22;9354;50.194;7.690;2022-08-19T07:18:24;20.10;99.90
18450;DHT22;9354;50.194;7.690;2022-08-19T07:21:02;20.10;99.90
18450;DHT22;9354;50.194;7.690;2022-08-19T07:23:30;20.10;99.90
18450;DHT22;9354;50.194;7.690;2022-08-19T07:25:57;20.10;99.90
18450;DHT22;9354;50.194;7.690;2022-08-19T07:28:25;20.20;99.90
18450;DHT22;9354;50.194;7.690;2022-08-19T07:30:53;20.20;99.90
18450;DHT22;9354;50.194;7.690;2022-08-19T07:33:21;20.20;99.90
18450;DHT22;9354;50.194;7.690;2022-08-19T07:35:48;20.30;99.90
18450;DHT22;9354;50.194;7.690;2022-08-19T07:38:16;20.40;99.90
18450;DHT22;9354;50.194;7.690;2022-08-19T07:40:44;20.40;99.90
18450;DHT22;9354;50.194;7.690;2022-08-19T07:43:12;20.50;99.90
18450;DHT22;9354;50.194;7.690;2022-08-19T07:45:39;20.60;99.90
18450;DHT22;9354;50.194;7.690;2022-08-19T07:48:09;20.70;99.90
18450;DHT22;9354;50.194;7.690;2022-08-19T07:50:37;20.80;99.90
18450;DHT22;9354;50.194;7.690;2022-08-19T07:53:04;20.80;99.90
18450;DHT22;9354;50.194;7.690;2022-08-19T07:55:34;20.90;99.90
18450;DHT22;9354;50.194;7.690;2022-08-19T07:58:02;21.00;99.90
18450;DHT22;9354;50.194;7.690;2022-08-19T08:00:31;21.00;99.90
18450;DHT22;9354;50.194;7.690;2022-08-19T08:02:58;21.10;99.90
18450;DHT22;9354;50.194;7.690;2022-08-19T08:05:29;21.20;99.90
18450;DHT22;9354;50.194;7.690;2022-08-19T08:08:14;21.40;99.90
18450;DHT22;9354;50.194;7.690;2022-08-19T08:11:05;21.50;99.90
18450;DHT22;9354;50.194;7.690;2022-08-19T08:13:32;21.70;99.90
18450;DHT22;9354;50.194;7.690;2022-08-19T08:16:02;21.90;99.90
18450;DHT22;9354;50.194;7.690;2022-08-19T08:18:29;22.10;99.90
18450;DHT22;9354;50.194;7.690;2022-08-19T08:20:58;22.40;99.90
18450;DHT22;9354;50.194;7.690;2022-08-19T08:23:26;22.70;99.90
18450;DHT22;9354;50.194;7.690;2022-08-19T08:25:57;22.90;99.90
18450;DHT22;9354;50.194;7.690;2022-08-19T08:28:26;23.00;99.90
18450;DHT22;9354;50.194;7.690;2022-08-19T08:30:57;23.10;99.90
18450;DHT22;9354;50.194;7.690;2022-08-19T08:33:27;23.20;99.90
18450;DHT22;9354;50.194;7.690;2022-08-19T08:35:54;23.30;99.90
18450;DHT22;9354;50.194;7.690;2022-08-19T08:38:23;23.50;99.90
18450;DHT22;9354;50.194;7.690;2022-08-19T08:40:53;23.60;99.90
18450;DHT22;9354;50.194;7.690;2022-08-19T08:43:28;23.70;99.90
18450;DHT22;9354;50.194;7.690;2022-08-19T08:46:00;23.80;99.90
18450;DHT22;9354;50.194;7.690;2022-08-19T08:48:35;24.00;99.90
18450;DHT22;9354;50.194;7.690;2022-08-19T08:51:07;24.20;99.90
18450;DHT22;9354;50.194;7.690;2022-08-19T08:53:38;24.30;99.90
18450;DHT22;9354;50.194;7.690;2022-08-19T08:56:08;24.30;99.90
18450;DHT22;9354;50.194;7.690;2022-08-19T08:58:46;24.30;99.90
18450;DHT22;9354;50.194;7.690;2022-08-19T09:01:15;24.50;99.90
18450;DHT22;9354;50.194;7.690;2022-08-19T09:03:43;24.60;99.90
18450;DHT22;9354;50.194;7.690;2022-08-19T09:06:14;24.70;99.90
18450;DHT22;9354;50.194;7.690;2022-08-19T09:08:50;24.90;99.90
18450;DHT22;9354;50.194;7.690;2022-08-19T09:11:29;25.00;99.90
18450;DHT22;9354;50.194;7.690;2022-08-19T09:14:08;25.20;99.90
18450;DHT22;9354;50.194;7.690;2022-08-19T09:16:38;25.40;99.90
18450;DHT22;9354;50.194;7.690;2022-08-19T09:19:08;25.60;99.90
18450;DHT22;9354;50.194;7.690;2022-08-19T09:21:36;25.70;99.90
18450;DHT22;9354;50.194;7.690;2022-08-19T09:24:06;25.80;99.90
18450;DHT22;9354;50.194;7.690;2022-08-19T09:26:34;25.80;99.90
18450;DHT22;9354;50.194;7.690;2022-08-19T09:29:01;25.90;99.90
18450;DHT22;9354;50.194;7.690;2022-08-19T09:31:31;25.80;99.90
18450;DHT22;9354;50.194;7.690;2022-08-19T09:33:59;25.70;99.90
18450;DHT22;9354;50.194;7.690;2022-08-19T09:36:27;25.70;99.90
18450;DHT22;9354;50.194;7.690;2022-08-19T09:38:59;25.80;99.90
18450;DHT22;9354;50.194;7.690;2022-08-19T09:41:28;25.90;99.90
18450;DHT22;9354;50.194;7.690;2022-08-19T09:43:57;26.00;99.90
18450;DHT22;9354;50.194;7.690;2022-08-19T09:46:26;26.20;99.90
18450;DHT22;9354;50.194;7.690;2022-08-19T09:48:54;26.30;99.90
18450;DHT22;9354;50.194;7.690;2022-08-19T09:51:25;26.40;99.90
18450;DHT22;9354;50.194;7.690;2022-08-19T09:53:55;26.50;99.90
18450;DHT22;9354;50.194;7.690;2022-08-19T09:56:25;26.50;99.90
18450;DHT22;9354;50.194;7.690;2022-08-19T09:58:54;26.60;99.90
18450;DHT22;9354;50.194;7.690;2022-08-19T10:01:24;26.70;99.90
18450;DHT22;9354;50.194;7.690;2022-08-19T10:03:54;26.70;99.90
18450;DHT22;9354;50.194;7.690;2022-08-19T10:06:23;26.80;99.70
18450;DHT22;9354;50.194;7.690;2022-08-19T10:08:52;26.80;99.40
18450;DHT22;9354;50.194;7.690;2022-08-19T10:11:20;26.90;99.20
18450;DHT22;9354;50.194;7.690;2022-08-19T10:13:48;27.00;98.80
18450;DHT22;9354;50.194;7.690;2022-08-19T10:16:20;27.10;98.50
18450;DHT22;9354;50.194;7.690;2022-08-19T10:18:48;27.20;98.20
18450;DHT22;9354;50.194;7.690;2022-08-19T10:21:17;27.20;97.50
18450;DHT22;9354;50.194;7.690;2022-08-19T10:23:52;27.20;97.20
18450;DHT22;9354;50.194;7.690;2022-08-19T10:26:22;27.10;97.20
18450;DHT22;9354;50.194;7.690;2022-08-19T10:28:50;27.20;97.00
18450;DHT22;9354;50.194;7.690;2022-08-19T10:31:21;27.10;96.90
18450;DHT22;9354;50.194;7.690;2022-08-19T10:33:50;27.00;97.00
18450;DHT22;9354;50.194;7.690;2022-08-19T10:36:25;27.00;97.10
18450;DHT22;9354;50.194;7.690;2022-08-19T10:38:55;27.20;96.60
18450;DHT22;9354;50.194;7.690;2022-08-19T10:41:26;27.00;95.80
18450;DHT22;9354;50.194;7.690;2022-08-19T10:43:55;26.90;95.90
18450;DHT22;9354;50.194;7.690;2022-08-19T10:46:26;27.00;96.10
18450;DHT22;9354;50.194;7.690;2022-08-19T10:48:54;27.10;95.90
18450;DHT22;9354;50.194;7.690;2022-08-19T10:51:22;27.10;95.50
18450;DHT22;9354;50.194;7.690;2022-08-19T10:54:07;27.00;95.40
18450;DHT22;9354;50.194;7.690;2022-08-19T10:56:35;27.00;95.30
18450;DHT22;9354;50.194;7.690;2022-08-19T10:59:23;27.20;95.60
18450;DHT22;9354;50.194;7.690;2022-08-19T11:01:54;27.40;95.00
18450;DHT22;9354;50.194;7.690;2022-08-19T11:04:22;27.50;94.20
18450;DHT22;9354;50.194;7.690;2022-08-19T11:06:49;27.30;93.90
18450;DHT22;9354;50.194;7.690;2022-08-19T11:09:18;27.30;93.70
18450;DHT22;9354;50.194;7.690;2022-08-19T11:11:46;27.40;93.60
18450;DHT22;9354;50.194;7.690;2022-08-19T11:14:16;27.50;93.60
18450;DHT22;9354;50.194;7.690;2022-08-19T11:16:46;27.70;93.20
18450;DHT22;9354;50.194;7.690;2022-08-19T11:19:16;27.80;93.00
18450;DHT22;9354;50.194;7.690;2022-08-19T11:21:46;27.90;92.70
18450;DHT22;9354;50.194;7.690;2022-08-19T11:24:16;28.00;92.70
18450;DHT22;9354;50.194;7.690;2022-08-19T11:26:44;28.20;92.30
18450;DHT22;9354;50.194;7.690;2022-08-19T11:29:13;28.30;92.00
18450;DHT22;9354;50.194;7.690;2022-08-19T11:31:43;28.30;91.70
18450;DHT22;9354;50.194;7.690;2022-08-19T11:34:12;28.40;91.40
18450;DHT22;9354;50.194;7.690;2022-08-19T11:36:43;28.40;91.20
18450;DHT22;9354;50.194;7.690;2022-08-19T11:39:13;28.50;91.00
18450;DHT22;9354;50.194;7.690;2022-08-19T11:41:41;28.60;90.90
18450;DHT22;9354;50.194;7.690;2022-08-19T11:44:09;28.60;90.70
18450;DHT22;9354;50.194;7.690;2022-08-19T11:46:37;28.70;90.50
18450;DHT22;9354;50.194;7.690;2022-08-19T11:49:06;28.80;90.40
18450;DHT22;9354;50.194;7.690;2022-08-19T11:51:35;28.90;90.10
18450;DHT22;9354;50.194;7.690;2022-08-19T11:54:05;28.90;89.90
18450;DHT22;9354;50.194;7.690;2022-08-19T11:56:33;28.90;89.60
18450;DHT22;9354;50.194;7.690;2022-08-19T11:59:01;29.00;89.40
18450;DHT22;9354;50.194;7.690;2022-08-19T12:01:29;29.00;88.90
18450;DHT22;9354;50.194;7.690;2022-08-19T12:03:57;28.80;88.70
18450;DHT22;9354;50.194;7.690;2022-08-19T12:06:28;28.50;89.00
18450;DHT22;9354;50.194;7.690;2022-08-19T12:08:56;28.20;89.80
18450;DHT22;9354;50.194;7.690;2022-08-19T12:11:26;28.00;89.80
18450;DHT22;9354;50.194;7.690;2022-08-19T12:13:54;28.00;90.00
18450;DHT22;9354;50.194;7.690;2022-08-19T12:16:23;28.00;90.00
18450;DHT22;9354;50.194;7.690;2022-08-19T12:18:51;27.90;90.10
18450;DHT22;9354;50.194;7.690;2022-08-19T12:21:21;27.70;90.10
18450;DHT22;9354;50.194;7.690;2022-08-19T12:23:49;27.60;90.20
18450;DHT22;9354;50.194;7.690;2022-08-19T12:26:18;27.70;90.20
18450;DHT22;9354;50.194;7.690;2022-08-19T12:28:47;27.80;89.90
18450;DHT22;9354;50.194;7.690;2022-08-19T12:31:15;27.70;89.80
18450;DHT22;9354;50.194;7.690;2022-08-19T12:33:43;27.60;89.60
18450;DHT22;9354;50.194;7.690;2022-08-19T12:36:12;27.60;89.90
18450;DHT22;9354;50.194;7.690;2022-08-19T12:38:40;27.70;89.80
18450;DHT22;9354;50.194;7.690;2022-08-19T12:41:11;27.80;89.30
18450;DHT22;9354;50.194;7.690;2022-08-19T12:43:39;27.90;88.50
18450;DHT22;9354;50.194;7.690;2022-08-19T12:46:10;27.90;88.40
18450;DHT22;9354;50.194;7.690;2022-08-19T12:48:38;27.90;88.20
18450;DHT22;9354;50.194;7.690;2022-08-19T12:51:10;27.90;88.10
18450;DHT22;9354;50.194;7.690;2022-08-19T12:53:38;28.00;88.10
18450;DHT22;9354;50.194;7.690;2022-08-19T12:56:07;28.30;87.80
18450;DHT22;9354;50.194;7.690;2022-08-19T12:58:34;28.50;87.10
18450;DHT22;9354;50.194;7.690;2022-08-19T13:01:07;28.60;86.00
18450;DHT22;9354;50.194;7.690;2022-08-19T13:03:36;28.50;86.40
18450;DHT22;9354;50.194;7.690;2022-08-19T13:06:04;28.60;86.40
18450;DHT22;9354;50.194;7.690;2022-08-19T13:08:31;28.70;86.30
18450;DHT22;9354;50.194;7.690;2022-08-19T13:11:07;28.90;85.80
18450;DHT22;9354;50.194;7.690;2022-08-19T13:13:34;29.10;84.50
18450;DHT22;9354;50.194;7.690;2022-08-19T13:16:02;29.10;84.20
18450;DHT22;9354;50.194;7.690;2022-08-19T13:18:30;29.10;83.90
18450;DHT22;9354;50.194;7.690;2022-08-19T13:21:02;29.20;83.90
18450;DHT22;9354;50.194;7.690;2022-08-19T13:23:30;29.30;83.80
18450;DHT22;9354;50.194;7.690;2022-08-19T13:25:57;29.40;83.70
18450;DHT22;9354;50.194;7.690;2022-08-19T13:28:25;29.60;83.20
18450;DHT22;9354;50.194;7.690;2022-08-19T13:31:15;29.70;82.90
18450;DHT22;9354;50.194;7.690;2022-08-19T13:34:00;29.70;82.50
18450;DHT22;9354;50.194;7.690;2022-08-19T13:36:29;29.80;82.30
18450;DHT22;9354;50.194;7.690;2022-08-19T13:38:56;29.90;81.60
18450;DHT22;9354;50.194;7.690;2022-08-19T13:41:24;29.90;81.30
18450;DHT22;9354;50.194;7.690;2022-08-19T13:43:53;29.80;80.90
18450;DHT22;9354;50.194;7.690;2022-08-19T13:46:21;29.70;81.20
18450;DHT22;9354;50.194;7.690;2022-08-19T13:48:48;29.70;81.00
18450;DHT22;9354;50.194;7.690;2022-08-19T13:51:16;29.70;81.00
18450;DHT22;9354;50.194;7.690;2022-08-19T13:53:45;29.80;81.10
18450;DHT22;9354;50.194;7.690;2022-08-19T13:56:14;29.90;80.80
18450;DHT22;9354;50.194;7.690;2022-08-19T13:58:42;30.00;80.60
18450;DHT22;9354;50.194;7.690;2022-08-19T14:01:10;30.10;80.90
18450;DHT22;9354;50.194;7.690;2022-08-19T14:03:38;30.20;79.40
18450;DHT22;9354;50.194;7.690;2022-08-19T14:06:05;30.10;79.20
18450;DHT22;9354;50.194;7.690;2022-08-19T14:08:33;29.90;79.00
18450;DHT22;9354;50.194;7.690;2022-08-19T14:11:02;29.70;79.20
18450;DHT22;9354;50.194;7.690;2022-08-19T14:13:29;29.60;79.80
18450;DHT22;9354;50.194;7.690;2022-08-19T14:15:59;29.70;79.90
18450;DHT22;9354;50.194;7.690;2022-08-19T14:18:27;29.70;79.60
18450;DHT22;9354;50.194;7.690;2022-08-19T14:20:54;29.70;79.50
18450;DHT22;9354;50.194;7.690;2022-08-19T14:23:22;29.70;79.40
18450;DHT22;9354;50.194;7.690;2022-08-19T14:25:50;29.90;79.40
18450;DHT22;9354;50.194;7.690;2022-08-19T14:28:18;29.90;79.00
18450;DHT22;9354;50.194;7.690;2022-08-19T14:30:46;29.90;78.90
18450;DHT22;9354;50.194;7.690;2022-08-19T14:33:13;29.90;78.80
18450;DHT22;9354;50.194;7.690;2022-08-19T14:35:40;29.80;78.60
18450;DHT22;9354;50.194;7.690;2022-08-19T14:38:16;29.70;79.20
18450;DHT22;9354;50.194;7.690;2022-08-19T14:40:44;29.60;78.90
18450;DHT22;9354;50.194;7.690;2022-08-19T14:43:11;29.70;78.70
18450;DHT22;9354;50.194;7.690;2022-08-19T14:45:40;29.70;78.80
18450;DHT22;9354;50.194;7.690;2022-08-19T14:48:08;29.70;78.40
18450;DHT22;9354;50.194;7.690;2022-08-19T14:50:36;29.70;78.30
18450;DHT22;9354;50.194;7.690;2022-08-19T14:53:06;29.80;78.20
18450;DHT22;9354;50.194;7.690;2022-08-19T14:55:34;29.90;77.70
18450;DHT22;9354;50.194;7.690;2022-08-19T14:58:01;29.80;77.30
18450;DHT22;9354;50.194;7.690;2022-08-19T15:00:29;29.90;77.10
18450;DHT22;9354;50.194;7.690;2022-08-19T15:02:58;29.80;77.00
18450;DHT22;9354;50.194;7.690;2022-08-19T15:05:25;29.80;76.80
18450;DHT22;9354;50.194;7.690;2022-08-19T15:07:53;29.70;76.80
18450;DHT22;9354;50.194;7.690;2022-08-19T15:10:23;29.70;76.90
18450;DHT22;9354;50.194;7.690;2022-08-19T15:12:50;29.70;77.00
18450;DHT22;9354;50.194;7.690;2022-08-19T15:15:19;29.80;76.80
18450;DHT22;9354;50.194;7.690;2022-08-19T15:17:49;29.70;76.60
18450;DHT22;9354;50.194;7.690;2022-08-19T15:20:19;29.70;76.60
18450;DHT22;9354;50.194;7.690;2022-08-19T15:22:47;29.70;76.60
18450;DHT22;9354;50.194;7.690;2022-08-19T15:25:17;29.70;76.80
18450;DHT22;9354;50.194;7.690;2022-08-19T15:27:46;29.70;76.70
18450;DHT22;9354;50.194;7.690;2022-08-19T15:30:20;29.60;76.80
18450;DHT22;9354;50.194;7.690;2022-08-19T15:32:48;29.50;76.50
18450;DHT22;9354;50.194;7.690;2022-08-19T15:35:17;29.50;76.60
18450;DHT22;9354;50.194;7.690;2022-08-19T15:37:47;29.30;76.30
18450;DHT22;9354;50.194;7.690;2022-08-19T15:40:18;29.20;76.30
18450;DHT22;9354;50.194;7.690;2022-08-19T15:42:46;29.00;76.60
18450;DHT22;9354;50.194;7.690;2022-08-19T15:45:17;28.90;77.30
18450;DHT22;9354;50.194;7.690;2022-08-19T15:47:45;28.70;77.70
18450;DHT22;9354;50.194;7.690;2022-08-19T15:50:18;28.70;78.10
18450;DHT22;9354;50.194;7.690;2022-08-19T15:52:50;28.60;78.20
18450;DHT22;9354;50.194;7.690;2022-08-19T15:55:21;28.50;78.30
18450;DHT22;9354;50.194;7.690;2022-08-19T15:57:48;28.50;78.20